Time;durP1;ratioP1;P1;durP2;ratioP2;P2;SDS_P1;SDS_P2;PMS_P1;PMS_P2;Temp;Humidity;BMP_temperature;BMP_pressure;BME280_temperature;BME280_humidity;BME280_pressure;Samples;Min_cycle;Max_cycle;Signal;HPM_P1;HPM_P2
2022/01/20 00:00:53;;;;;;;2.90;1.50;;;20.50;66.20;;;;;;5097099;28;20210;-66
2022/01/20 00:03:23;;;;;;;3.20;1.60;;;20.50;66.40;;;;;;5096208;28;20408;-69
2022/01/20 00:28:10;;;;;;;7.67;1.73;;;20.20;68.60;;;;;;5106717;28;20440;-70
2022/01/20 00:38:25;;;;;;;3.30;1.70;;;20.10;68.10;;;;;;5115033;28;20448;-69
2022/01/20 00:40:51;;;;;;;5.27;1.50;;;20.10;67.80;;;;;;5096191;28;20809;-70
2022/01/20 00:43:17;;;;;;;1.90;1.50;;;20.10;68.10;;;;;;5096223;28;20485;-69
2022/01/20 00:45:43;;;;;;;1.97;1.50;;;20.10;67.80;;;;;;5096866;28;20976;-68
2022/01/20 00:48:09;;;;;;;4.13;1.57;;;20.00;68.60;;;;;;5096543;28;20409;-68
2022/01/20 00:50:35;;;;;;;5.80;1.50;;;20.00;69.10;;;;;;5096539;28;20218;-67
2022/01/20 00:53:02;;;;;;;2.47;1.60;;;20.00;68.50;;;;;;5095868;28;20179;-68
2022/01/20 00:55:27;;;;;;;4.03;1.57;;;20.00;68.20;;;;;;5114767;28;20405;-70
2022/01/20 00:57:53;;;;;;;2.10;1.50;;;20.00;68.30;;;;;;5096500;28;20423;-68
2022/01/20 01:00:19;;;;;;;3.07;2.00;;;20.10;68.60;;;;;;5096219;28;20304;-69
2022/01/20 01:02:44;;;;;;;2.50;1.87;;;20.00;68.50;;;;;;5095345;28;20497;-67
2022/01/20 01:05:11;;;;;;;2.47;1.70;;;20.00;68.00;;;;;;5095517;28;20178;-69
2022/01/20 01:10:11;;;;;;;1.90;1.50;;;20.00;67.40;;;;;;5114258;28;20502;-67
2022/01/20 01:15:36;;;;;;;4.30;1.50;;;20.00;67.80;;;;;;5114257;28;20408;-67
2022/01/20 01:23:23;;;;;;;1.90;1.60;;;20.10;67.40;;;;;;5113874;28;20416;-67
2022/01/20 01:25:49;;;;;;;1.80;1.40;;;20.00;67.30;;;;;;5095844;28;20827;-69
2022/01/20 01:28:16;;;;;;;2.10;1.60;;;20.10;67.70;;;;;;5095685;28;20397;-68
2022/01/20 01:31:06;;;;;;;1.90;1.37;;;20.00;67.30;;;;;;5095863;28;20195;-68
2022/01/20 01:33:30;;;;;;;2.30;1.47;;;20.00;67.30;;;;;;5113396;28;20427;-70
2022/01/20 01:35:58;;;;;;;5.27;1.53;;;20.10;67.40;;;;;;5095923;28;20433;-70
2022/01/20 01:38:36;;;;;;;2.70;1.60;;;20.10;67.10;;;;;;5095818;28;20411;-67
2022/01/20 01:41:09;;;;;;;2.80;1.43;;;20.10;67.20;;;;;;5094985;28;20472;-68
2022/01/20 01:43:37;;;;;;;5.30;1.60;;;20.10;67.10;;;;;;5095473;28;20421;-68
2022/01/20 01:46:04;;;;;;;3.30;2.37;;;20.10;67.00;;;;;;5095647;28;20417;-69
2022/01/20 01:48:30;;;;;;;1.87;1.37;;;20.10;66.90;;;;;;5095618;28;20401;-67
2022/01/20 01:50:56;;;;;;;2.67;1.60;;;20.00;67.00;;;;;;5095510;28;20448;-68
2022/01/20 01:53:21;;;;;;;2.40;1.60;;;20.10;66.90;;;;;;5094446;28;20943;-69
2022/01/20 01:55:47;;;;;;;2.00;1.50;;;20.10;66.40;;;;;;5095323;28;20221;-67
2022/01/20 01:58:13;;;;;;;1.83;1.40;;;20.10;66.60;;;;;;5095523;28;20171;-69
2022/01/20 02:00:40;;;;;;;2.83;1.63;;;20.10;67.20;;;;;;5095234;28;20263;-68
2022/01/20 02:03:06;;;;;;;1.97;1.43;;;20.10;66.70;;;;;;5094611;28;20175;-69
2022/01/20 02:05:33;;;;;;;3.10;1.80;;;20.00;66.50;;;;;;5095227;28;20553;-68
2022/01/20 02:18:49;;;;;;;1.83;1.30;;;20.00;67.50;;;;;;5113559;28;20431;-69
2022/01/20 02:21:16;;;;;;;1.87;1.20;;;20.00;66.80;;;;;;5074486;28;20454;-68
2022/01/20 02:23:44;;;;;;;2.70;1.63;;;20.00;66.50;;;;;;5074930;28;20913;-68
2022/01/20 02:26:10;;;;;;;11.40;1.60;;;20.00;66.70;;;;;;5074936;28;20460;-68
2022/01/20 02:28:36;;;;;;;1.90;1.30;;;20.00;67.80;;;;;;5074794;28;20454;-68
2022/01/20 02:31:02;;;;;;;2.80;1.67;;;19.90;67.30;;;;;;5093485;28;20257;-68
2022/01/20 02:33:30;;;;;;;1.80;1.20;;;20.00;67.20;;;;;;5094806;28;20932;-69
2022/01/20 02:36:02;;;;;;;2.33;1.43;;;20.00;67.20;;;;;;5094980;28;20846;-68
2022/01/20 02:38:45;;;;;;;2.13;1.50;;;20.00;67.00;;;;;;5094946;28;20420;-68
2022/01/20 02:46:40;;;;;;;1.97;1.37;;;20.00;66.60;;;;;;5113155;28;20496;-68
2022/01/20 02:49:07;;;;;;;1.90;1.57;;;20.00;66.60;;;;;;5094571;28;20408;-69
2022/01/20 02:51:35;;;;;;;2.37;1.40;;;20.00;66.60;;;;;;5094228;28;20454;-69
2022/01/20 02:54:00;;;;;;;2.80;1.37;;;20.00;67.10;;;;;;5094396;28;20396;-69
2022/01/20 02:56:26;;;;;;;1.73;1.30;;;20.00;66.50;;;;;;5094977;28;20417;-67
2022/01/20 02:58:51;;;;;;;1.80;1.13;;;20.00;66.60;;;;;;5094751;28;20178;-67
2022/01/20 03:01:17;;;;;;;2.23;1.53;;;20.00;66.60;;;;;;5093714;28;20194;-67
2022/01/20 03:03:43;;;;;;;2.03;1.30;;;19.90;67.10;;;;;;5094968;28;20258;-67
2022/01/20 03:06:09;;;;;;;2.13;1.30;;;19.90;67.20;;;;;;5094302;28;20195;-68
2022/01/20 03:08:34;;;;;;;1.60;1.10;;;19.90;67.20;;;;;;5094720;28;20178;-68
2022/01/20 03:11:00;;;;;;;2.00;1.30;;;19.90;67.00;;;;;;5094685;28;20605;-67
2022/01/20 03:13:26;;;;;;;1.83;1.27;;;19.90;67.50;;;;;;5094351;28;20175;-66
2022/01/20 03:15:52;;;;;;;1.80;1.30;;;19.90;66.80;;;;;;5094579;28;20177;-69
2022/01/20 03:18:18;;;;;;;1.70;1.30;;;19.90;66.80;;;;;;5094076;28;20172;-67
2022/01/20 03:20:44;;;;;;;1.87;1.37;;;19.90;67.10;;;;;;5094439;28;20460;-69
2022/01/20 03:23:09;;;;;;;1.53;1.23;;;19.90;67.10;;;;;;5094063;28;20170;-67
2022/01/20 03:25:35;;;;;;;2.40;1.27;;;20.00;67.20;;;;;;5094649;28;20202;-67
2022/01/20 03:28:01;;;;;;;2.40;1.33;;;19.90;67.20;;;;;;5096813;28;20622;-68
2022/01/20 03:30:27;;;;;;;2.00;1.40;;;19.90;66.90;;;;;;5097673;28;20205;-68
2022/01/20 03:32:53;;;;;;;2.13;1.30;;;19.90;67.40;;;;;;5097876;28;20179;-68
2022/01/20 03:35:19;;;;;;;1.40;1.10;;;19.90;67.90;;;;;;5098105;28;20421;-67
2022/01/20 03:37:45;;;;;;;1.93;1.20;;;19.90;67.20;;;;;;5098075;28;20206;-69
2022/01/20 03:40:11;;;;;;;1.67;1.23;;;19.90;67.00;;;;;;5097841;28;20880;-66
2022/01/20 03:42:37;;;;;;;1.40;1.00;;;19.90;67.20;;;;;;5097314;28;20615;-67
2022/01/20 03:45:04;;;;;;;1.97;1.30;;;19.90;67.30;;;;;;5097686;28;20873;-67
2022/01/20 03:47:30;;;;;;;2.23;1.30;;;19.90;66.30;;;;;;5097676;28;20420;-68
2022/01/20 03:52:26;;;;;;;3.40;1.30;;;19.90;65.50;;;;;;5115552;28;20401;-66
2022/01/20 03:54:52;;;;;;;4.33;1.20;;;19.90;65.80;;;;;;5097462;28;20405;-68
2022/01/20 03:57:19;;;;;;;2.00;1.00;;;19.90;66.00;;;;;;5097495;28;20421;-66
2022/01/20 03:59:45;;;;;;;1.80;1.00;;;20.00;65.60;;;;;;5097322;28;20448;-66
2022/01/20 04:02:11;;;;;;;1.90;1.30;;;19.90;65.80;;;;;;5097274;28;20437;-65
2022/01/20 04:04:37;;;;;;;2.17;1.47;;;19.90;66.40;;;;;;5097616;28;20452;-66
2022/01/20 04:07:04;;;;;;;2.07;1.20;;;19.90;66.10;;;;;;5096907;28;20431;-66
2022/01/20 04:09:30;;;;;;;1.53;1.00;;;19.90;66.20;;;;;;5097261;28;20781;-68
2022/01/20 04:11:56;;;;;;;2.20;1.33;;;19.90;65.80;;;;;;5097118;28;20393;-65
2022/01/20 04:14:23;;;;;;;2.93;1.20;;;19.90;66.00;;;;;;5097522;28;20179;-69
2022/01/20 04:19:22;;;;;;;4.80;0.97;;;19.90;65.80;;;;;;5115141;28;20460;-68
2022/01/20 04:21:48;;;;;;;2.40;1.20;;;19.90;66.10;;;;;;5096938;28;20455;-65
2022/01/20 04:24:15;;;;;;;1.83;1.30;;;19.90;66.00;;;;;;5115516;28;20413;-67
2022/01/20 04:26:43;;;;;;;2.10;1.30;;;19.90;66.10;;;;;;5097031;28;20176;-67
2022/01/20 04:29:11;;;;;;;7.80;1.23;;;19.90;66.30;;;;;;5096975;28;20959;-67
2022/01/20 04:31:39;;;;;;;1.80;1.07;;;19.90;66.10;;;;;;5096318;28;20417;-69
2022/01/20 04:34:07;;;;;;;1.50;0.93;;;19.90;66.10;;;;;;5096936;28;20413;-68
2022/01/20 04:36:36;;;;;;;1.47;0.93;;;19.90;65.90;;;;;;5096930;28;20452;-66
2022/01/20 04:39:05;;;;;;;1.50;1.03;;;19.80;66.10;;;;;;5096560;28;20448;-68
2022/01/20 04:41:31;;;;;;;1.77;1.03;;;19.90;66.50;;;;;;5096271;28;20967;-67
2022/01/20 04:43:57;;;;;;;2.00;1.10;;;19.90;65.90;;;;;;5096454;28;20452;-66
2022/01/20 04:46:36;;;;;;;4.03;1.10;;;19.90;67.20;;;;;;5096340;28;20171;-65
2022/01/20 04:56:59;;;;;;;1.30;0.80;;;19.80;66.60;;;;;;5093277;28;20417;-65
2022/01/20 04:57:18;;;;;;;9.20;0.87;;;19.80;65.90;;;;;;5115192;28;20443;-69
2022/01/20 04:59:45;;;;;;;1.37;0.90;;;19.80;65.40;;;;;;5096166;28;20467;-69
2022/01/20 05:02:10;;;;;;;1.40;0.90;;;19.80;65.10;;;;;;5095911;28;20409;-69
2022/01/20 05:04:37;;;;;;;1.50;1.00;;;19.80;65.30;;;;;;5096514;28;20503;-68
2022/01/20 05:07:03;;;;;;;1.30;0.90;;;19.80;65.60;;;;;;5096020;28;20261;-68
2022/01/20 05:09:29;;;;;;;1.40;1.00;;;19.80;65.20;;;;;;5096047;28;20500;-68
2022/01/20 05:12:01;;;;;;;1.80;1.10;;;19.80;65.50;;;;;;5095519;28;20503;-68
2022/01/20 05:14:28;;;;;;;3.60;1.30;;;19.80;65.40;;;;;;5096110;28;20178;-68
2022/01/20 05:16:55;;;;;;;1.63;0.80;;;19.80;65.40;;;;;;5096073;28;20412;-68
2022/01/20 05:19:23;;;;;;;1.40;0.90;;;19.80;64.50;;;;;;5095591;28;20470;-68
2022/01/20 05:21:48;;;;;;;1.43;0.90;;;19.80;64.40;;;;;;5095240;28;20413;-68
2022/01/20 05:24:14;;;;;;;1.70;1.00;;;19.80;64.90;;;;;;5095998;28;20931;-68
2022/01/20 05:26:39;;;;;;;1.33;1.00;;;19.80;64.10;;;;;;5114414;28;20168;-68
2022/01/20 05:29:05;;;;;;;1.50;0.90;;;19.90;63.90;;;;;;5095712;28;20174;-68
2022/01/20 05:31:31;;;;;;;1.47;0.90;;;19.90;64.10;;;;;;5094949;28;20658;-68
2022/01/20 05:33:56;;;;;;;1.63;1.00;;;19.90;64.60;;;;;;5095966;28;20174;-68
2022/01/20 05:36:22;;;;;;;1.20;0.80;;;19.80;64.20;;;;;;5095776;28;20196;-68
2022/01/20 05:38:48;;;;;;;4.10;1.10;;;19.90;64.50;;;;;;5114200;28;20182;-67
2022/01/20 05:41:14;;;;;;;1.53;1.00;;;19.90;64.70;;;;;;5094876;28;20460;-68
2022/01/20 05:43:39;;;;;;;4.57;0.90;;;19.90;64.90;;;;;;5095260;28;20565;-67
2022/01/20 05:46:05;;;;;;;1.97;0.87;;;19.90;65.20;;;;;;5113978;28;20178;-66
2022/01/20 05:48:35;;;;;;;1.30;0.80;;;19.90;65.60;;;;;;5095587;28;20268;-67
2022/01/20 05:51:05;;;;;;;1.30;0.90;;;19.90;65.50;;;;;;5094673;28;20224;-68
2022/01/20 05:53:32;;;;;;;1.90;1.30;;;19.90;65.30;;;;;;5095240;28;20416;-67
2022/01/20 05:55:58;;;;;;;2.97;1.60;;;19.90;65.00;;;;;;5113461;28;20439;-68
2022/01/20 05:58:24;;;;;;;2.50;1.43;;;19.90;64.70;;;;;;5095317;28;20940;-67
2022/01/20 06:00:50;;;;;;;2.70;1.80;;;19.90;65.00;;;;;;5094952;28;20249;-67
2022/01/20 06:06:00;;;;;;;5.23;2.20;;;19.90;64.50;;;;;;5113813;28;20502;-70
2022/01/20 06:08:26;;;;;;;3.23;2.07;;;19.90;64.90;;;;;;5095087;28;20491;-69
2022/01/20 06:10:52;;;;;;;7.60;2.20;;;19.90;65.10;;;;;;5094957;28;20259;-67
2022/01/20 06:13:18;;;;;;;3.47;2.07;;;19.90;64.90;;;;;;5094640;28;20174;-68
2022/01/20 06:15:45;;;;;;;5.10;1.90;;;19.90;65.70;;;;;;5095252;28;20980;-69
2022/01/20 06:18:11;;;;;;;4.27;2.40;;;19.90;65.10;;;;;;5095231;28;20397;-67
2022/01/20 06:20:38;;;;;;;7.00;3.13;;;19.90;65.30;;;;;;5094228;28;20579;-67
2022/01/20 06:23:08;;;;;;;4.63;2.77;;;19.90;65.20;;;;;;5074658;28;20767;-69
2022/01/20 06:25:34;;;;;;;4.43;2.80;;;19.90;65.50;;;;;;5093065;28;20728;-68
2022/01/20 06:28:00;;;;;;;5.47;2.90;;;19.90;65.50;;;;;;5092872;28;21054;-69
2022/01/20 06:30:26;;;;;;;3.97;2.30;;;19.90;65.40;;;;;;5074813;28;20442;-69
2022/01/20 06:32:53;;;;;;;6.77;2.60;;;19.90;65.20;;;;;;5092962;28;20415;-67
2022/01/20 06:35:18;;;;;;;4.23;2.30;;;19.90;65.40;;;;;;5094810;28;20525;-69
2022/01/20 06:37:44;;;;;;;3.37;2.30;;;19.90;65.50;;;;;;5095089;28;20462;-67
2022/01/20 06:40:10;;;;;;;7.20;2.40;;;19.90;65.00;;;;;;5094688;28;20449;-67
2022/01/20 06:42:37;;;;;;;3.80;2.20;;;19.90;65.40;;;;;;5094114;28;20657;-66
2022/01/20 06:45:08;;;;;;;5.30;2.40;;;19.90;65.40;;;;;;5094693;28;20913;-69
2022/01/20 06:47:34;;;;;;;6.20;2.40;;;19.90;65.30;;;;;;5094805;28;20417;-68
2022/01/20 06:50:00;;;;;;;5.00;2.70;;;19.90;65.40;;;;;;5112943;28;20519;-68
2022/01/20 06:52:27;;;;;;;3.60;2.37;;;19.90;65.10;;;;;;5094065;28;20235;-66
2022/01/20 06:54:53;;;;;;;5.77;2.90;;;19.90;65.20;;;;;;5093337;28;20439;-68
2022/01/20 06:57:19;;;;;;;4.40;2.57;;;19.90;65.40;;;;;;5092717;28;20424;-66
2022/01/20 06:59:44;;;;;;;4.00;2.40;;;19.90;65.40;;;;;;5108972;28;20460;-69
2022/01/20 07:02:10;;;;;;;3.73;2.37;;;19.90;65.40;;;;;;5094330;28;20162;-66
2022/01/20 07:04:38;;;;;;;3.60;2.30;;;19.90;65.60;;;;;;5097733;28;20168;-66
2022/01/20 07:07:05;;;;;;;5.37;2.33;;;19.90;65.20;;;;;;5098046;28;20257;-69
2022/01/20 07:09:32;;;;;;;4.20;2.30;;;19.90;65.50;;;;;;5116211;28;20417;-69
2022/01/20 07:11:58;;;;;;;2.87;2.30;;;19.90;65.70;;;;;;5097552;28;20485;-66
2022/01/20 07:14:24;;;;;;;3.63;2.30;;;19.90;65.10;;;;;;5097378;28;20831;-70
2022/01/20 07:16:49;;;;;;;5.53;2.67;;;19.90;65.40;;;;;;5096200;28;20940;-69
2022/01/20 07:19:16;;;;;;;4.77;2.60;;;19.90;65.70;;;;;;5097976;28;20665;-67
2022/01/20 07:21:42;;;;;;;8.60;2.90;;;19.80;65.40;;;;;;5097223;28;20179;-66
2022/01/20 07:24:08;;;;;;;5.93;2.20;;;19.80;65.40;;;;;;5098331;28;20405;-68
2022/01/20 07:26:34;;;;;;;3.70;2.20;;;19.90;66.20;;;;;;5115991;28;20417;-68
2022/01/20 07:29:00;;;;;;;4.03;2.00;;;20.00;66.70;;;;;;5097467;28;20196;-66
2022/01/20 07:31:25;;;;;;;5.53;2.20;;;20.00;66.20;;;;;;5097769;28;20424;-66
2022/01/20 07:33:51;;;;;;;9.17;2.47;;;20.00;65.50;;;;;;5096401;28;20237;-66
2022/01/20 07:36:17;;;;;;;11.13;2.70;;;20.00;65.60;;;;;;5097289;28;20656;-65
2022/01/20 07:38:43;;;;;;;11.27;2.17;;;20.00;65.60;;;;;;5097775;28;20631;-66
2022/01/20 07:41:09;;;;;;;12.93;2.90;;;20.00;65.60;;;;;;5095477;28;20459;-72
2022/01/20 07:43:35;;;;;;;4.57;1.93;;;20.00;65.70;;;;;;5085586;28;20414;-68
2022/01/20 07:46:01;;;;;;;5.47;2.20;;;20.10;65.80;;;;;;5097073;28;20421;-68
2022/01/20 07:48:27;;;;;;;4.83;2.10;;;20.00;65.40;;;;;;5097765;28;20582;-68
2022/01/20 07:50:53;;;;;;;5.93;1.87;;;20.10;65.50;;;;;;5097601;28;20194;-68
2022/01/20 07:53:18;;;;;;;5.77;2.17;;;20.10;65.60;;;;;;5097161;28;20438;-69
2022/01/20 07:55:44;;;;;;;3.37;2.10;;;20.10;65.40;;;;;;5097683;28;20235;-69
2022/01/20 07:58:09;;;;;;;3.33;1.90;;;20.10;65.60;;;;;;5115572;28;20175;-69
2022/01/20 08:00:35;;;;;;;2.73;1.70;;;20.10;65.00;;;;;;5097133;28;20623;-72
2022/01/20 08:03:01;;;;;;;6.60;2.30;;;20.10;65.30;;;;;;5097257;28;20519;-70
2022/01/20 08:05:26;;;;;;;2.97;1.93;;;20.10;65.20;;;;;;5097320;28;20176;-71
2022/01/20 08:07:52;;;;;;;4.33;1.93;;;20.10;65.20;;;;;;5097587;28;20519;-66
2022/01/20 08:10:18;;;;;;;3.10;1.83;;;20.10;65.00;;;;;;5097218;28;20194;-65
2022/01/20 08:12:43;;;;;;;5.97;2.00;;;20.20;65.00;;;;;;5096452;28;20182;-67
2022/01/20 08:15:12;;;;;;;3.87;1.77;;;20.20;65.00;;;;;;5115806;28;20174;-68
2022/01/20 08:17:39;;;;;;;3.07;1.80;;;20.20;65.00;;;;;;5097271;28;20186;-69
2022/01/20 08:20:07;;;;;;;4.13;1.90;;;20.20;64.90;;;;;;5096733;28;20548;-70
2022/01/20 08:22:34;;;;;;;4.53;2.10;;;20.30;64.50;;;;;;5096708;28;20405;-69
2022/01/20 08:25:20;;;;;;;3.90;2.00;;;20.30;64.90;;;;;;5096809;28;20409;-70
2022/01/20 08:27:47;;;;;;;4.90;1.63;;;20.30;65.50;;;;;;5096620;28;20413;-68
2022/01/20 08:30:20;;;;;;;4.90;1.87;;;20.30;65.20;;;;;;5097008;28;20432;-69
2022/01/20 08:32:47;;;;;;;2.60;1.70;;;20.30;64.70;;;;;;5096739;28;20955;-69
2022/01/20 08:35:13;;;;;;;3.00;2.13;;;20.30;64.90;;;;;;5096466;28;20418;-70
2022/01/20 08:37:43;;;;;;;3.50;1.70;;;20.40;65.30;;;;;;5093548;28;20416;-69
2022/01/20 08:40:13;;;;;;;5.40;1.83;;;20.30;65.40;;;;;;5096406;28;20963;-69
2022/01/20 08:42:40;;;;;;;2.57;1.53;;;20.30;64.70;;;;;;5096028;28;20824;-69
2022/01/20 08:45:08;;;;;;;2.67;1.77;;;20.30;65.50;;;;;;5096578;28;20405;-68
2022/01/20 08:47:34;;;;;;;2.47;1.47;;;20.30;65.10;;;;;;5096411;28;20872;-68
2022/01/20 08:49:59;;;;;;;2.47;1.67;;;20.30;65.10;;;;;;5096169;28;20473;-69
2022/01/20 08:52:30;;;;;;;6.60;1.67;;;20.20;65.00;;;;;;5096237;28;20175;-68
2022/01/20 08:54:58;;;;;;;3.30;1.27;;;20.20;65.40;;;;;;5096533;28;20171;-69
2022/01/20 08:57:28;;;;;;;2.20;1.30;;;20.20;65.20;;;;;;5096504;28;21244;-68
2022/01/20 08:59:55;;;;;;;2.70;1.50;;;20.20;65.20;;;;;;5096077;28;20456;-67
2022/01/20 09:02:21;;;;;;;2.50;1.70;;;20.20;65.10;;;;;;5096414;28;20454;-66
2022/01/20 09:04:47;;;;;;;8.40;2.20;;;20.20;65.30;;;;;;5096327;28;20462;-69
2022/01/20 09:07:12;;;;;;;4.70;1.67;;;20.10;65.00;;;;;;5096464;28;20409;-67
2022/01/20 09:09:43;;;;;;;6.13;1.80;;;20.10;65.10;;;;;;5096166;28;20183;-67
2022/01/20 09:17:25;;;;;;;2.87;1.63;;;20.10;66.20;;;;;;5114853;28;20400;-66
2022/01/20 09:19:50;;;;;;;2.30;1.40;;;20.10;65.90;;;;;;5095743;28;20460;-66
2022/01/20 09:22:16;;;;;;;5.97;1.57;;;20.10;65.10;;;;;;5095676;28;20616;-67
2022/01/20 09:24:45;;;;;;;4.03;1.40;;;20.00;69.80;;;;;;5095179;28;20202;-67
2022/01/20 09:27:12;;;;;;;10.57;1.73;;;20.10;70.10;;;;;;5095866;28;20471;-69
2022/01/20 09:29:38;;;;;;;2.83;1.57;;;20.10;70.00;;;;;;5095739;28;20417;-68
2022/01/20 09:32:06;;;;;;;4.30;1.50;;;20.00;69.10;;;;;;5095497;28;20505;-68
2022/01/20 09:34:32;;;;;;;2.87;1.40;;;20.00;69.00;;;;;;5095931;28;20408;-68
2022/01/20 09:36:58;;;;;;;4.53;1.40;;;20.00;68.70;;;;;;5095741;28;20408;-69
2022/01/20 09:39:24;;;;;;;6.93;1.70;;;20.00;67.90;;;;;;5095756;28;20203;-69
2022/01/20 09:41:50;;;;;;;9.57;1.57;;;20.00;68.30;;;;;;5092743;28;20220;-69
2022/01/20 09:44:16;;;;;;;2.70;1.30;;;20.00;67.90;;;;;;5095742;28;20167;-69
2022/01/20 09:46:44;;;;;;;1.97;1.37;;;20.00;67.40;;;;;;5095489;28;20889;-66
2022/01/20 09:49:11;;;;;;;7.83;2.17;;;20.00;68.30;;;;;;5095051;28;20228;-64
2022/01/20 09:51:37;;;;;;;3.20;1.37;;;20.00;67.90;;;;;;5095300;28;20427;-68
2022/01/20 09:54:04;;;;;;;2.60;1.20;;;20.00;67.50;;;;;;5095704;28;20464;-68
2022/01/20 09:56:30;;;;;;;4.87;1.60;;;20.10;68.10;;;;;;5095358;28;20436;-68
2022/01/20 09:58:56;;;;;;;3.37;2.10;;;20.10;67.60;;;;;;5095514;28;20446;-65
2022/01/20 10:01:35;;;;;;;3.20;1.53;;;20.10;68.00;;;;;;5094684;28;20500;-67
2022/01/20 10:04:01;;;;;;;8.40;1.60;;;20.10;68.20;;;;;;5095252;28;20167;-69
2022/01/20 10:06:27;;;;;;;4.70;1.40;;;20.10;67.80;;;;;;5095387;28;20412;-66
2022/01/20 10:09:00;;;;;;;4.13;1.40;;;20.10;67.70;;;;;;5095363;28;20495;-68
2022/01/20 10:11:26;;;;;;;3.63;1.47;;;20.10;67.80;;;;;;5094699;28;20199;-66
2022/01/20 10:13:56;;;;;;;4.93;1.77;;;20.10;67.90;;;;;;5094959;28;20488;-64
2022/01/20 10:16:21;;;;;;;8.60;1.33;;;20.00;67.10;;;;;;5095290;28;20171;-68
2022/01/20 10:18:57;;;;;;;5.13;1.80;;;20.00;67.50;;;;;;5094950;28;21575;-68
2022/01/20 10:21:37;;;;;;;5.73;1.60;;;20.00;67.50;;;;;;5094669;28;20215;-68
2022/01/20 10:24:08;;;;;;;2.10;1.30;;;20.10;67.80;;;;;;5095132;28;20848;-65
2022/01/20 10:26:34;;;;;;;5.87;1.73;;;19.90;67.50;;;;;;5094745;28;20416;-67
2022/01/20 10:29:04;;;;;;;1.93;1.27;;;20.10;67.60;;;;;;5094929;28;20754;-67
2022/01/20 10:31:40;;;;;;;2.00;1.20;;;20.10;67.50;;;;;;5113047;28;20425;-65
2022/01/20 10:34:28;;;;;;;2.80;1.20;;;20.10;67.80;;;;;;5095017;28;20876;-64
2022/01/20 10:36:55;;;;;;;2.43;1.30;;;20.10;67.30;;;;;;5097235;28;20428;-68
2022/01/20 10:39:50;;;;;;;1.40;1.00;;;20.10;67.40;;;;;;5098693;28;20911;-67
2022/01/20 10:42:23;;;;;;;2.97;1.10;;;20.10;67.20;;;;;;5077473;28;20419;-68
2022/01/20 10:44:51;;;;;;;4.40;1.30;;;20.20;67.20;;;;;;5099219;28;20769;-66
2022/01/20 10:47:25;;;;;;;2.87;1.40;;;20.20;67.10;;;;;;5099024;28;20746;-65
2022/01/20 10:49:51;;;;;;;1.97;1.10;;;20.30;66.80;;;;;;5098587;28;20429;-65
2022/01/20 10:52:22;;;;;;;1.40;1.00;;;20.30;66.80;;;;;;5098699;28;20419;-65
2022/01/20 10:54:49;;;;;;;2.97;1.20;;;20.30;67.20;;;;;;5098750;28;20964;-67
2022/01/20 10:57:16;;;;;;;6.70;1.40;;;20.40;67.30;;;;;;5098812;28;20946;-65
2022/01/20 10:59:51;;;;;;;3.00;1.47;;;20.40;67.00;;;;;;5098640;28;20482;-68
2022/01/20 11:02:22;;;;;;;3.40;1.40;;;20.40;66.50;;;;;;5098026;28;20408;-68
2022/01/20 11:04:49;;;;;;;1.73;1.03;;;20.50;67.10;;;;;;5098803;28;20455;-68
2022/01/20 11:07:15;;;;;;;2.63;1.00;;;20.50;66.00;;;;;;5098702;28;20413;-66
2022/01/20 11:09:46;;;;;;;2.23;0.90;;;20.50;67.50;;;;;;5098457;28;20485;-68
2022/01/20 11:12:14;;;;;;;2.33;1.30;;;20.50;67.20;;;;;;5098227;28;20495;-65
2022/01/20 11:14:41;;;;;;;1.80;1.00;;;20.50;66.90;;;;;;5098379;28;20409;-66
2022/01/20 11:17:07;;;;;;;2.67;1.20;;;20.50;66.90;;;;;;5098342;28;20420;-67
2022/01/20 11:19:37;;;;;;;2.00;1.20;;;20.50;66.70;;;;;;5098258;28;20464;-65
2022/01/20 11:22:12;;;;;;;1.93;0.93;;;20.50;66.80;;;;;;5098081;28;20754;-67
2022/01/20 11:24:38;;;;;;;2.47;1.07;;;20.50;67.20;;;;;;5098371;28;20412;-67
2022/01/20 11:27:06;;;;;;;1.93;1.00;;;20.50;66.70;;;;;;5097986;28;20440;-66
2022/01/20 11:29:43;;;;;;;1.80;1.20;;;20.50;66.10;;;;;;5098090;28;20904;-67
2022/01/20 11:32:35;;;;;;;1.77;1.20;;;20.40;66.60;;;;;;5097751;28;20420;-65
2022/01/20 11:35:09;;;;;;;1.50;0.90;;;20.50;65.50;;;;;;5093726;28;20415;-65
2022/01/20 11:37:39;;;;;;;2.10;1.03;;;20.40;65.40;;;;;;5097754;28;20508;-67
2022/01/20 11:40:14;;;;;;;1.77;1.10;;;20.40;65.50;;;;;;5097633;28;20592;-67
2022/01/20 11:42:40;;;;;;;2.13;1.20;;;20.30;65.60;;;;;;5097818;28;20771;-66
2022/01/20 11:45:35;;;;;;;2.30;1.27;;;20.30;64.80;;;;;;5097943;28;20501;-66
2022/01/20 11:48:30;;;;;;;2.27;1.07;;;20.30;64.90;;;;;;5094620;28;20190;-67
2022/01/20 11:51:08;;;;;;;1.80;1.10;;;20.30;65.30;;;;;;5075933;28;20929;-66
2022/01/20 11:53:41;;;;;;;2.80;1.13;;;20.20;65.10;;;;;;5097414;28;20885;-66
2022/01/20 11:56:08;;;;;;;2.00;1.10;;;20.20;65.10;;;;;;5097806;28;20441;-68
2022/01/20 11:58:33;;;;;;;9.93;1.30;;;20.30;65.10;;;;;;5116197;28;20413;-67
2022/01/20 12:01:06;;;;;;;6.83;1.00;;;20.20;65.30;;;;;;5114209;28;20817;-65
2022/01/20 12:03:36;;;;;;;2.30;1.10;;;20.20;65.30;;;;;;5087488;28;20186;-65
2022/01/20 12:06:13;;;;;;;1.90;1.00;;;20.30;65.90;;;;;;5114001;27;20424;-67
2022/01/20 12:09:00;;;;;;;3.73;0.97;;;20.30;65.60;;;;;;5095580;28;20938;-67
2022/01/20 12:11:41;;;;;;;4.43;0.90;;;20.20;65.60;;;;;;5090591;28;20440;-67
2022/01/20 12:14:08;;;;;;;4.60;1.13;;;20.20;65.20;;;;;;5095195;28;20442;-68
2022/01/20 12:16:36;;;;;;;3.77;0.97;;;20.20;65.70;;;;;;5096270;28;20577;-66
2022/01/20 12:19:04;;;;;;;2.10;0.90;;;20.20;66.50;;;;;;5095311;28;20956;-67
2022/01/20 12:21:30;;;;;;;2.13;1.33;;;20.20;66.10;;;;;;5094771;28;20456;-67
2022/01/20 12:23:57;;;;;;;2.40;1.10;;;20.20;67.00;;;;;;5096339;28;20424;-68
2022/01/20 12:26:26;;;;;;;5.23;1.07;;;20.20;66.50;;;;;;5094816;28;20420;-65
2022/01/20 12:29:07;;;;;;;5.63;1.10;;;20.20;66.60;;;;;;5093017;28;20417;-65
2022/01/20 12:31:54;;;;;;;2.20;1.10;;;20.20;66.80;;;;;;5096492;28;20838;-63
2022/01/20 12:34:21;;;;;;;1.60;1.00;;;20.30;67.30;;;;;;5110583;28;20429;-63
2022/01/20 12:36:54;;;;;;;1.50;1.10;;;20.20;67.10;;;;;;5095226;28;20421;-66
2022/01/20 12:39:28;;;;;;;1.87;1.00;;;20.30;67.20;;;;;;5094723;28;20428;-65
2022/01/20 12:42:03;;;;;;;2.37;1.30;;;20.30;67.30;;;;;;5094653;28;20435;-64
2022/01/20 12:44:42;;;;;;;1.80;0.93;;;20.30;67.30;;;;;;5095592;28;20780;-67
2022/01/20 12:47:08;;;;;;;1.50;1.00;;;20.30;66.90;;;;;;5094514;28;20424;-65
2022/01/20 12:49:34;;;;;;;1.80;1.00;;;20.40;66.80;;;;;;5095671;28;20542;-66
2022/01/20 12:51:59;;;;;;;3.30;1.20;;;20.30;67.00;;;;;;5113386;28;20417;-67
2022/01/20 12:54:31;;;;;;;4.30;1.30;;;20.40;67.00;;;;;;5094182;28;20186;-66
2022/01/20 12:57:00;;;;;;;8.50;1.30;;;20.50;67.00;;;;;;5095716;28;20516;-66
2022/01/20 12:59:29;;;;;;;10.37;1.43;;;20.50;67.90;;;;;;5094466;28;20409;-67
2022/01/20 13:02:00;;;;;;;2.60;1.13;;;20.50;67.10;;;;;;5095156;28;20420;-67
2022/01/20 13:04:29;;;;;;;1.93;0.93;;;20.50;66.70;;;;;;5096098;28;20409;-68
2022/01/20 13:07:00;;;;;;;4.83;1.33;;;20.50;67.00;;;;;;5096122;28;20412;-66
2022/01/20 13:09:41;;;;;;;17.27;1.80;;;20.50;68.10;;;;;;5096316;28;20772;-69
2022/01/20 13:12:09;;;;;;;24.83;2.00;;;20.60;71.20;;;;;;5095982;28;20412;-66
2022/01/20 13:14:39;;;;;;;30.87;2.00;;;20.60;72.00;;;;;;5096368;28;20863;-65
2022/01/20 13:17:06;;;;;;;12.10;1.93;;;20.60;70.70;;;;;;5095837;28;20409;-64
2022/01/20 13:19:36;;;;;;;17.57;2.00;;;20.60;70.20;;;;;;5096026;28;20465;-67
2022/01/20 13:22:05;;;;;;;13.30;1.50;;;20.60;69.80;;;;;;5095611;28;20915;-65
2022/01/20 13:24:33;;;;;;;12.43;1.80;;;20.60;69.40;;;;;;5095926;28;20765;-65
2022/01/20 13:26:59;;;;;;;11.90;2.13;;;20.60;69.30;;;;;;5095758;28;20420;-66
2022/01/20 13:29:37;;;;;;;18.83;1.90;;;20.60;69.20;;;;;;5095323;28;20412;-67
2022/01/20 13:32:03;;;;;;;11.60;2.00;;;20.60;68.50;;;;;;5095454;28;20408;-68
2022/01/20 13:34:29;;;;;;;7.90;2.20;;;20.60;68.90;;;;;;5095716;28;20553;-66
2022/01/20 13:36:55;;;;;;;8.10;1.60;;;20.60;68.60;;;;;;5095604;28;20401;-67
2022/01/20 13:39:48;;;;;;;9.07;2.03;;;20.60;68.80;;;;;;5095486;28;20175;-66
2022/01/20 13:42:27;;;;;;;12.77;1.90;;;20.60;68.50;;;;;;5091458;28;20771;-67
2022/01/20 13:45:13;;;;;;;7.47;1.40;;;20.50;68.10;;;;;;5095463;28;20769;-65
2022/01/20 13:47:48;;;;;;;8.43;1.80;;;20.50;68.20;;;;;;5095579;28;20416;-66
2022/01/20 13:50:25;;;;;;;8.20;1.90;;;20.50;68.20;;;;;;5095336;28;20947;-65
2022/01/20 13:52:51;;;;;;;4.40;1.47;;;20.50;68.40;;;;;;5094661;28;20405;-65
2022/01/20 13:55:29;;;;;;;5.43;1.50;;;20.50;68.10;;;;;;5095419;28;20459;-67
2022/01/20 13:57:57;;;;;;;10.83;1.80;;;20.50;68.20;;;;;;5095417;28;20408;-66
2022/01/20 14:00:26;;;;;;;8.33;1.80;;;20.50;67.80;;;;;;5095077;28;20984;-66
2022/01/20 14:02:51;;;;;;;5.97;1.50;;;20.40;67.90;;;;;;5095104;28;20409;-66
2022/01/20 14:05:20;;;;;;;2.90;1.70;;;20.40;68.10;;;;;;5095043;28;20752;-65
2022/01/20 14:07:47;;;;;;;3.77;1.60;;;20.40;67.90;;;;;;5095071;28;20171;-67